createdAt,value
2022-10-24T00:01:37.869Z,2.50
2022-10-24T00:06:39.172Z,3.05
2022-10-24T00:09:07.342Z,2.65
2022-10-24T00:11:35.943Z,3.13
2022-10-24T00:14:04.659Z,2.85
2022-10-24T00:16:35.777Z,2.63
2022-10-24T00:19:03.968Z,2.55
2022-10-24T00:21:32.368Z,2.92
2022-10-24T00:24:01.212Z,2.90
2022-10-24T00:26:30.150Z,2.78
2022-10-24T00:28:58.349Z,2.72
2022-10-24T00:31:26.569Z,3.33
2022-10-24T00:33:56.700Z,3.28
2022-10-24T00:36:25.914Z,2.97
2022-10-24T00:38:54.337Z,3.25
2022-10-24T00:41:29.405Z,2.83
2022-10-24T00:44:17.946Z,3.20
2022-10-24T00:46:49.957Z,2.67
2022-10-24T00:49:22.145Z,2.78
2022-10-24T00:51:54.431Z,3.25
2022-10-24T00:54:23.052Z,2.58
2022-10-24T00:56:59.608Z,2.25
2022-10-24T00:59:29.349Z,2.97
2022-10-24T01:01:58.016Z,2.08
2022-10-24T01:04:27.442Z,2.42
2022-10-24T01:07:07.653Z,2.38
2022-10-24T01:10:02.030Z,2.78
2022-10-24T01:15:12.715Z,1.95
2022-10-24T01:17:46.668Z,2.25
2022-10-24T01:20:33.165Z,2.30
2022-10-24T01:23:22.395Z,2.35
2022-10-24T01:26:03.419Z,2.35
2022-10-24T01:28:36.710Z,1.70
2022-10-24T01:31:11.435Z,2.47
2022-10-24T01:33:46.638Z,2.10
2022-10-24T01:36:21.677Z,2.58
2022-10-24T01:38:54.952Z,3.20
2022-10-24T01:41:26.297Z,1.75
2022-10-24T01:47:34.502Z,2.25
2022-10-24T01:52:36.334Z,1.92
2022-10-24T01:55:05.379Z,1.90
2022-10-24T01:57:35.587Z,1.95
2022-10-24T02:00:05.292Z,2.00
2022-10-24T02:02:43.035Z,2.13
2022-10-24T02:05:15.859Z,2.25
2022-10-24T02:07:49.164Z,2.20
2022-10-24T02:10:22.639Z,2.00
2022-10-24T02:12:54.990Z,2.22
2022-10-24T02:15:27.434Z,1.95
2022-10-24T02:17:58.529Z,1.83
2022-10-24T02:20:34.424Z,2.20
2022-10-24T02:23:07.284Z,1.50
2022-10-24T02:25:38.626Z,1.83
2022-10-24T02:28:10.894Z,1.60
2022-10-24T02:30:43.462Z,1.90
2022-10-24T02:33:13.802Z,1.48
2022-10-24T02:35:43.232Z,1.92
2022-10-24T02:38:16.927Z,1.92
2022-10-24T02:40:47.338Z,1.63
2022-10-24T02:43:17.019Z,1.85
2022-10-24T02:45:51.681Z,1.88
2022-10-24T02:48:26.332Z,1.83
2022-10-24T02:50:54.650Z,1.73
2022-10-24T02:53:25.286Z,2.10
2022-10-24T02:55:53.386Z,2.10
2022-10-24T02:58:21.568Z,1.83
2022-10-24T03:00:49.617Z,1.88
2022-10-24T03:03:17.713Z,1.88
2022-10-24T03:05:47.027Z,2.03
2022-10-24T03:08:15.416Z,2.30
2022-10-24T03:10:43.822Z,2.17
2022-10-24T03:13:12.053Z,2.30
2022-10-24T03:15:40.181Z,1.70
2022-10-24T03:18:08.318Z,2.40
2022-10-24T03:20:36.390Z,2.30
2022-10-24T03:23:05.880Z,1.63
2022-10-24T03:25:34.570Z,2.65
2022-10-24T03:28:02.663Z,2.30
2022-10-24T03:30:30.848Z,1.95
2022-10-24T03:32:59.005Z,2.05
2022-10-24T03:35:26.999Z,1.92
2022-10-24T03:37:55.088Z,2.17
2022-10-24T03:40:24.508Z,2.17
2022-10-24T03:42:52.526Z,1.95
2022-10-24T03:45:20.703Z,2.08
2022-10-24T03:47:48.759Z,1.92
2022-10-24T03:50:17.979Z,2.65
2022-10-24T03:52:47.139Z,2.15
2022-10-24T03:55:15.469Z,2.05
2022-10-24T03:57:45.277Z,2.03
2022-10-24T04:00:13.862Z,2.42
2022-10-24T04:02:43.880Z,2.13
2022-10-24T04:05:12.878Z,2.45
2022-10-24T04:07:41.294Z,2.83
2022-10-24T04:10:10.457Z,2.40
2022-10-24T04:12:38.615Z,2.92
2022-10-24T04:15:09.080Z,2.50
2022-10-24T04:17:37.047Z,3.15
2022-10-24T04:20:06.236Z,2.83
2022-10-24T04:22:34.435Z,2.70
2022-10-24T04:25:02.776Z,2.55
2022-10-24T04:27:30.903Z,3.03
2022-10-24T04:29:59.025Z,2.95
2022-10-24T04:32:28.960Z,3.33
2022-10-24T04:34:57.026Z,2.92
2022-10-24T04:37:25.154Z,3.35
2022-10-24T04:39:54.672Z,3.58
2022-10-24T04:42:23.052Z,3.50
2022-10-24T04:44:52.111Z,3.47
2022-10-24T04:49:55.912Z,4.75
2022-10-24T04:52:24.093Z,3.97
2022-10-24T04:54:52.133Z,3.88
2022-10-24T04:57:20.213Z,4.20
2022-10-24T04:59:48.320Z,4.47
2022-10-24T05:02:16.492Z,4.50
2022-10-24T05:04:44.635Z,3.97
2022-10-24T05:07:14.187Z,3.60
2022-10-24T05:09:42.575Z,3.90
2022-10-24T05:12:10.639Z,3.92
2022-10-24T05:14:38.753Z,3.95
2022-10-24T05:17:07.359Z,3.80
2022-10-24T05:19:36.686Z,4.47
2022-10-24T05:22:07.209Z,4.30
2022-10-24T05:24:39.617Z,4.13
2022-10-24T05:27:07.962Z,4.35
2022-10-24T05:29:37.087Z,4.18
2022-10-24T05:32:06.205Z,4.35
2022-10-24T05:34:34.480Z,4.10
2022-10-24T05:37:02.517Z,4.25
2022-10-24T05:39:30.566Z,4.05
2022-10-24T05:41:59.954Z,3.08
2022-10-24T05:44:27.959Z,3.33
2022-10-24T05:46:56.051Z,3.58
2022-10-24T05:49:24.325Z,2.70
2022-10-24T05:51:52.310Z,3.78
2022-10-24T05:54:20.417Z,4.28
2022-10-24T05:56:48.905Z,3.85
2022-10-24T05:59:18.282Z,3.00
2022-10-24T06:01:46.473Z,3.28
2022-10-24T06:04:14.692Z,3.03
2022-10-24T06:06:45.045Z,3.42
2022-10-24T06:09:14.465Z,3.22
2022-10-24T06:11:43.172Z,3.10
2022-10-24T06:14:11.557Z,2.92
2022-10-24T06:16:41.126Z,2.88
2022-10-24T06:19:09.327Z,2.92
2022-10-24T06:21:37.650Z,3.03
2022-10-24T06:24:06.009Z,2.97
2022-10-24T06:26:34.286Z,3.60
2022-10-24T06:29:02.411Z,2.88
2022-10-24T06:31:30.576Z,2.88
2022-10-24T06:34:01.071Z,2.72
2022-10-24T06:36:31.535Z,3.10
2022-10-24T06:38:59.844Z,2.80
2022-10-24T06:41:28.098Z,2.70
2022-10-24T06:43:56.479Z,2.90
2022-10-24T06:46:24.597Z,3.03
2022-10-24T06:48:55.262Z,3.63
2022-10-24T06:51:25.810Z,3.85
2022-10-24T06:53:53.841Z,2.97
2022-10-24T06:56:22.415Z,2.55
2022-10-24T06:58:50.873Z,2.72
2022-10-24T07:01:21.997Z,2.70
2022-10-24T07:03:50.498Z,3.38
2022-10-24T07:08:57.592Z,3.40
2022-10-24T07:11:26.585Z,2.78
2022-10-24T07:13:57.942Z,2.60
2022-10-24T07:16:30.251Z,2.20
2022-10-24T07:18:58.435Z,2.50
2022-10-24T07:21:29.004Z,2.60
2022-10-24T07:23:59.045Z,2.90
2022-10-24T07:26:28.783Z,3.40
2022-10-24T07:31:35.124Z,4.00
2022-10-24T07:34:05.796Z,2.63
2022-10-24T07:36:33.983Z,2.80
2022-10-24T07:39:03.585Z,2.13
2022-10-24T07:41:33.124Z,2.50
2022-10-24T07:44:03.260Z,2.90
2022-10-24T07:46:31.981Z,2.75
2022-10-24T07:49:00.037Z,3.03
2022-10-24T07:51:29.806Z,3.00
2022-10-24T07:53:59.234Z,2.92
2022-10-24T07:56:28.708Z,5.15
2022-10-24T07:58:57.964Z,4.10
2022-10-24T08:01:30.687Z,3.60
2022-10-24T08:03:58.942Z,2.75
2022-10-24T08:06:30.865Z,3.10
2022-10-24T08:08:59.233Z,3.38
2022-10-24T08:11:29.985Z,3.47
2022-10-24T08:13:58.270Z,2.83
2022-10-24T08:16:27.063Z,3.53
2022-10-24T08:18:57.877Z,2.90
2022-10-24T08:21:26.475Z,2.72
2022-10-24T08:23:55.947Z,3.33
2022-10-24T08:26:26.482Z,5.72
2022-10-24T08:28:57.557Z,7.47
2022-10-24T08:31:27.053Z,3.50
2022-10-24T08:33:56.413Z,2.72
2022-10-24T08:36:26.872Z,3.58
2022-10-24T08:38:55.517Z,5.32
2022-10-24T08:41:32.417Z,7.78
2022-10-24T08:44:04.562Z,3.20
2022-10-24T08:46:49.412Z,3.58
2022-10-24T08:51:54.769Z,2.63
2022-10-24T08:54:26.676Z,3.28
2022-10-24T08:56:58.059Z,2.85
2022-10-24T08:59:32.063Z,2.60
2022-10-24T09:02:04.616Z,3.00
2022-10-24T09:04:40.569Z,6.50
2022-10-24T09:07:17.329Z,9.63
2022-10-24T09:09:48.777Z,5.60
2022-10-24T09:12:19.017Z,5.15
2022-10-24T09:14:59.007Z,8.50
2022-10-24T09:17:31.804Z,7.03
2022-10-24T09:20:01.839Z,6.60
2022-10-24T09:22:33.245Z,8.95
2022-10-24T09:25:05.086Z,6.00
2022-10-24T09:27:36.339Z,5.40
2022-10-24T09:30:09.022Z,10.38
2022-10-24T09:32:37.722Z,8.30
2022-10-24T09:35:08.940Z,8.70
2022-10-24T09:37:42.863Z,6.65
2022-10-24T09:40:23.308Z,5.38
2022-10-24T09:42:57.268Z,4.57
2022-10-24T09:45:46.378Z,4.77
2022-10-24T09:48:26.056Z,3.88
2022-10-24T09:50:58.130Z,4.00
2022-10-24T09:53:28.567Z,4.05
2022-10-24T09:56:00.326Z,5.00
2022-10-24T09:58:32.833Z,5.20
2022-10-24T10:01:05.918Z,5.13
2022-10-24T10:03:35.724Z,5.68
2022-10-24T10:10:35.007Z,3.92
2022-10-24T10:13:07.453Z,3.38
2022-10-24T10:15:39.782Z,3.28
2022-10-24T10:18:34.388Z,3.10
2022-10-24T10:21:11.410Z,3.93
2022-10-24T10:23:41.834Z,3.50
2022-10-24T10:26:23.746Z,3.38
2022-10-24T10:28:59.425Z,3.25
2022-10-24T10:31:34.796Z,3.03
2022-10-24T10:34:20.259Z,2.75
2022-10-24T10:37:25.230Z,2.58
2022-10-24T10:40:19.390Z,3.50
2022-10-24T10:43:01.481Z,2.92
2022-10-24T10:45:36.826Z,3.70
2022-10-24T10:48:25.509Z,3.42
2022-10-24T10:51:02.266Z,3.13
2022-10-24T10:53:41.068Z,3.45
2022-10-24T10:56:23.617Z,3.17
2022-10-24T10:59:06.220Z,3.10
2022-10-24T11:01:44.104Z,3.17
2022-10-24T11:04:24.214Z,3.97
2022-10-24T11:07:03.630Z,3.05
2022-10-24T11:09:38.332Z,3.20
2022-10-24T11:12:12.961Z,3.40
2022-10-24T11:14:46.617Z,3.63
2022-10-24T11:17:21.063Z,3.80
2022-10-24T11:19:58.082Z,3.35
2022-10-24T11:22:35.252Z,3.47
2022-10-24T11:25:10.053Z,3.38
2022-10-24T11:30:16.557Z,3.30
2022-10-24T11:32:51.805Z,3.28
2022-10-24T11:35:28.946Z,5.07
2022-10-24T11:38:03.338Z,3.60
2022-10-24T11:40:31.973Z,2.95
2022-10-24T11:43:12.043Z,3.08
2022-10-24T11:45:46.865Z,3.38
2022-10-24T11:48:20.393Z,4.00
2022-10-24T11:50:54.070Z,3.28
2022-10-24T11:53:50.566Z,3.45
2022-10-24T11:56:27.118Z,3.42
2022-10-24T11:59:00.147Z,2.95
2022-10-24T12:01:58.214Z,3.40
2022-10-24T12:04:51.911Z,3.25
2022-10-24T12:07:45.818Z,2.72
2022-10-24T12:10:39.691Z,2.47
2022-10-24T12:13:24.645Z,2.55
2022-10-24T12:16:01.817Z,2.78
2022-10-24T12:18:33.741Z,2.80
2022-10-24T12:21:09.887Z,2.38
2022-10-24T12:23:39.402Z,2.63
2022-10-24T12:26:18.899Z,3.35
2022-10-24T12:28:56.165Z,2.90
2022-10-24T12:31:29.314Z,2.55
2022-10-24T12:34:40.166Z,2.83
2022-10-24T12:37:31.501Z,2.83
2022-10-24T12:40:00.000Z,2.53
2022-10-24T12:43:14.771Z,3.15
2022-10-24T12:45:43.320Z,2.10
2022-10-24T12:48:31.801Z,2.22
2022-10-24T12:51:04.136Z,2.75
2022-10-24T12:53:38.476Z,1.95
2022-10-24T12:56:15.796Z,2.30
2022-10-24T12:58:57.478Z,2.05
2022-10-24T13:01:29.742Z,2.60
2022-10-24T13:04:39.553Z,2.30
2022-10-24T13:07:29.650Z,2.70
2022-10-24T13:10:11.123Z,3.13
2022-10-24T13:12:56.888Z,2.70
2022-10-24T13:15:42.112Z,2.25
2022-10-24T13:20:46.075Z,2.42
2022-10-24T13:23:17.648Z,2.60
2022-10-24T13:25:46.719Z,2.38
2022-10-24T13:28:39.094Z,2.85
2022-10-24T13:31:42.986Z,3.15
2022-10-24T13:34:24.841Z,2.60
2022-10-24T13:37:01.409Z,2.80
2022-10-24T13:39:37.506Z,3.25
2022-10-24T13:42:20.115Z,2.72
2022-10-24T13:44:52.392Z,3.50
2022-10-24T13:47:25.807Z,2.50
2022-10-24T13:49:59.440Z,1.70
2022-10-24T13:52:34.184Z,1.65
2022-10-24T13:57:36.325Z,2.10
2022-10-24T14:00:09.992Z,1.80
2022-10-24T14:02:42.769Z,1.70
2022-10-24T14:05:24.722Z,1.38
2022-10-24T14:07:53.203Z,1.30
2022-10-24T14:10:22.641Z,1.52
2022-10-24T14:12:56.965Z,1.90
2022-10-24T14:15:28.655Z,1.50
2022-10-24T14:18:00.024Z,1.42
2022-10-24T14:20:32.157Z,1.70
2022-10-24T14:23:00.552Z,1.58
2022-10-24T14:25:33.150Z,1.63
2022-10-24T14:28:10.404Z,1.10
2022-10-24T14:30:38.617Z,0.85
2022-10-24T14:33:23.820Z,0.93
2022-10-24T14:38:27.976Z,2.65
2022-10-24T14:41:08.225Z,3.65
2022-10-24T14:43:39.887Z,3.53
2022-10-24T14:46:25.678Z,4.95
2022-10-24T14:48:54.739Z,5.65
2022-10-24T14:51:28.580Z,1.85
2022-10-24T14:53:58.119Z,1.90
2022-10-24T14:56:30.166Z,1.40
2022-10-24T14:59:00.886Z,1.30
2022-10-24T15:01:29.289Z,1.45
2022-10-24T15:03:59.653Z,1.60
2022-10-24T15:06:37.189Z,1.83
2022-10-24T15:09:16.059Z,1.77
2022-10-24T15:11:47.641Z,1.70
2022-10-24T15:14:39.904Z,1.58
2022-10-24T15:17:25.868Z,1.63
2022-10-24T15:19:58.768Z,1.55
2022-10-24T15:22:32.006Z,1.63
2022-10-24T15:25:02.075Z,1.83
2022-10-24T15:27:32.553Z,2.67
2022-10-24T15:30:00.574Z,1.15
2022-10-24T15:32:28.609Z,1.20
2022-10-24T15:34:56.789Z,0.95
2022-10-24T15:37:28.582Z,1.10
2022-10-24T15:40:02.860Z,1.00
2022-10-24T15:42:30.903Z,1.35
2022-10-24T15:44:58.880Z,1.20
2022-10-24T15:47:27.011Z,1.85
2022-10-24T15:49:55.142Z,1.30
2022-10-24T15:52:23.251Z,1.10
2022-10-24T15:54:51.198Z,1.17
2022-10-24T15:57:21.027Z,1.50
2022-10-24T15:59:49.008Z,1.92
2022-10-24T16:02:21.096Z,1.80
2022-10-24T16:04:49.521Z,2.55
2022-10-24T16:07:18.194Z,2.20
2022-10-24T16:09:46.513Z,1.85
2022-10-24T16:12:14.762Z,1.30
2022-10-24T16:14:44.448Z,1.00
2022-10-24T16:17:12.514Z,1.50
2022-10-24T16:19:40.747Z,1.33
2022-10-24T16:22:11.006Z,1.30
2022-10-24T16:24:39.231Z,1.70
2022-10-24T16:27:08.627Z,2.08
2022-10-24T16:29:37.307Z,2.30
2022-10-24T16:32:07.184Z,2.50
2022-10-24T16:34:36.208Z,2.50
2022-10-24T16:37:04.912Z,2.38
2022-10-24T16:39:33.856Z,1.40
2022-10-24T16:42:04.698Z,2.20
2022-10-24T16:44:35.310Z,1.92
2022-10-24T16:47:03.729Z,2.50
2022-10-24T16:49:33.529Z,2.25
2022-10-24T16:52:03.072Z,2.40
2022-10-24T16:54:31.780Z,3.00
2022-10-24T16:57:00.942Z,2.05
2022-10-24T16:59:31.311Z,1.77
2022-10-24T17:01:59.698Z,1.90
2022-10-24T17:04:32.809Z,1.40
2022-10-24T17:07:05.372Z,1.48
2022-10-24T17:09:33.603Z,1.73
2022-10-24T17:12:01.981Z,1.35
2022-10-24T17:14:30.653Z,1.40
2022-10-24T17:16:58.798Z,2.08
2022-10-24T17:19:27.680Z,2.00
2022-10-24T17:21:56.205Z,1.80
2022-10-24T17:24:26.915Z,1.40
2022-10-24T17:26:55.631Z,1.20
2022-10-24T17:29:27.195Z,1.48
2022-10-24T17:31:56.580Z,1.52
2022-10-24T17:34:26.018Z,1.52
2022-10-24T17:37:01.151Z,1.10
2022-10-24T17:39:33.567Z,1.10
2022-10-24T17:42:02.100Z,1.60
2022-10-24T17:44:30.812Z,1.30
2022-10-24T17:47:00.116Z,1.50
2022-10-24T17:49:28.162Z,1.20
2022-10-24T17:51:59.334Z,1.00
2022-10-24T17:54:28.284Z,0.90
2022-10-24T17:56:57.839Z,1.73
2022-10-24T17:59:26.923Z,1.20
2022-10-24T18:01:55.342Z,1.45
2022-10-24T18:04:24.000Z,1.58
2022-10-24T18:06:52.179Z,1.50
2022-10-24T18:09:20.616Z,1.60
2022-10-24T18:11:49.111Z,1.77
2022-10-24T18:14:18.620Z,2.05
2022-10-24T18:16:46.658Z,6.88
2022-10-24T18:19:14.805Z,1.90
2022-10-24T18:21:43.882Z,2.00
2022-10-24T18:24:12.027Z,1.95
2022-10-24T18:26:42.388Z,2.88
2022-10-24T18:29:10.774Z,2.45
2022-10-24T18:31:40.842Z,3.00
2022-10-24T18:34:10.279Z,1.40
2022-10-24T18:36:38.554Z,1.70
2022-10-24T18:39:07.079Z,1.38
2022-10-24T18:41:47.911Z,1.70
2022-10-24T18:44:25.833Z,1.60
2022-10-24T18:46:57.962Z,1.58
2022-10-24T18:49:26.634Z,1.63
2022-10-24T18:52:05.118Z,1.25
2022-10-24T18:54:36.784Z,1.50
2022-10-24T18:57:15.789Z,1.52
2022-10-24T18:59:46.034Z,1.80
2022-10-24T19:02:27.088Z,1.50
2022-10-24T19:05:05.605Z,1.35
2022-10-24T19:07:34.099Z,1.90
2022-10-24T19:10:03.328Z,1.40
2022-10-24T19:12:32.592Z,1.30
2022-10-24T19:15:01.862Z,1.30
2022-10-24T19:17:32.298Z,1.02
2022-10-24T19:20:00.449Z,0.88
2022-10-24T19:22:30.125Z,0.90
2022-10-24T19:24:58.846Z,1.00
2022-10-24T19:27:27.711Z,0.88
2022-10-24T19:29:55.767Z,1.00
2022-10-24T19:32:24.152Z,1.20
2022-10-24T19:34:53.702Z,1.65
2022-10-24T19:37:22.344Z,1.40
2022-10-24T19:39:50.685Z,1.73
2022-10-24T19:42:19.053Z,1.65
2022-10-24T19:44:50.027Z,1.20
2022-10-24T19:47:18.179Z,1.13
2022-10-24T19:49:46.687Z,1.30
2022-10-24T19:52:17.374Z,0.95
2022-10-24T19:54:45.901Z,1.20
2022-10-24T19:57:16.532Z,1.00
2022-10-24T19:59:44.725Z,1.00
2022-10-24T20:02:13.303Z,0.90
2022-10-24T20:04:43.437Z,1.00
2022-10-24T20:07:17.335Z,1.20
2022-10-24T20:09:46.801Z,1.00
2022-10-24T20:12:14.812Z,1.10
2022-10-24T20:14:42.944Z,1.10
2022-10-24T20:17:11.531Z,1.02
2022-10-24T20:19:39.841Z,1.10
2022-10-24T20:22:07.956Z,1.00
2022-10-24T20:24:35.949Z,1.20
2022-10-24T20:29:36.087Z,1.17
2022-10-24T20:32:04.341Z,1.17
2022-10-24T20:34:32.501Z,1.45
2022-10-24T20:37:00.548Z,1.25
2022-10-24T20:39:30.591Z,1.20
2022-10-24T20:41:58.587Z,1.40
2022-10-24T20:44:28.090Z,1.30
2022-10-24T20:46:58.965Z,1.33
2022-10-24T20:49:27.519Z,1.67
2022-10-24T20:51:56.506Z,1.90
2022-10-24T20:54:24.626Z,1.60
2022-10-24T20:56:53.443Z,1.48
2022-10-24T20:59:22.792Z,1.60
2022-10-24T21:01:52.426Z,1.50
2022-10-24T21:04:21.167Z,1.60
2022-10-24T21:06:49.233Z,1.65
2022-10-24T21:09:17.687Z,1.30
2022-10-24T21:11:45.775Z,1.40
2022-10-24T21:14:14.951Z,1.80
2022-10-24T21:16:43.042Z,1.50
2022-10-24T21:19:12.563Z,4.55
2022-10-24T21:21:41.688Z,2.15
2022-10-24T21:24:15.424Z,1.80
2022-10-24T21:26:43.732Z,1.75
2022-10-24T21:31:59.988Z,2.50
2022-10-24T21:34:33.246Z,2.15
2022-10-24T21:37:03.307Z,2.03
2022-10-24T21:39:31.797Z,2.38
2022-10-24T21:41:59.812Z,2.15
2022-10-24T21:44:27.881Z,2.10
2022-10-24T21:46:55.878Z,1.90
2022-10-24T21:49:25.680Z,3.00
2022-10-24T21:51:55.255Z,3.42
2022-10-24T21:54:25.350Z,2.47
2022-10-24T21:56:53.475Z,2.20
2022-10-24T21:59:22.352Z,2.33
2022-10-24T22:01:51.985Z,2.53
2022-10-24T22:04:20.931Z,1.85
2022-10-24T22:06:49.364Z,1.92
2022-10-24T22:09:21.113Z,2.10
2022-10-24T22:11:49.337Z,2.03
2022-10-24T22:14:18.338Z,2.50
2022-10-24T22:16:47.059Z,3.10
2022-10-24T22:19:15.472Z,2.63
2022-10-24T22:21:45.486Z,3.40
2022-10-24T22:24:15.143Z,3.13
2022-10-24T22:26:45.149Z,3.33
2022-10-24T22:29:16.384Z,2.95
2022-10-24T22:31:45.268Z,2.80
2022-10-24T22:34:16.836Z,3.10
2022-10-24T22:36:56.318Z,3.25
2022-10-24T22:39:26.647Z,3.40
2022-10-24T22:41:56.877Z,3.75
2022-10-24T22:44:25.747Z,3.72
2022-10-24T22:47:33.117Z,3.88
2022-10-24T22:50:09.970Z,3.53
2022-10-24T22:52:38.584Z,3.50
2022-10-24T22:55:18.691Z,4.40
2022-10-24T22:57:49.122Z,4.53
2022-10-24T23:00:18.789Z,4.07
2022-10-24T23:02:47.660Z,4.40
2022-10-24T23:05:37.259Z,3.65
2022-10-24T23:08:08.119Z,3.20
2022-10-24T23:10:39.633Z,3.33
2022-10-24T23:13:11.360Z,4.05
2022-10-24T23:15:40.578Z,4.25
2022-10-24T23:18:11.301Z,4.25
2022-10-24T23:20:43.963Z,4.28
2022-10-24T23:23:28.350Z,4.07
2022-10-24T23:26:02.730Z,4.55
2022-10-24T23:28:40.873Z,4.32
2022-10-24T23:31:10.190Z,4.38
2022-10-24T23:33:38.671Z,4.00
2022-10-24T23:36:07.496Z,3.80
2022-10-24T23:38:36.088Z,4.20
2022-10-24T23:41:04.824Z,4.35
2022-10-24T23:43:34.709Z,4.15
2022-10-24T23:46:07.754Z,3.92
2022-10-24T23:48:53.892Z,3.90
2022-10-24T23:51:31.104Z,4.50
2022-10-24T23:54:00.124Z,4.15
2022-10-24T23:56:30.389Z,4.45
2022-10-24T23:59:00.275Z,4.80
